createdAt,value
2018-07-30T00:01:22.445Z,54.61
2018-07-30T00:03:51.615Z,54.89
2018-07-30T00:06:20.743Z,55.57
2018-07-30T00:08:49.893Z,54.22
2018-07-30T00:11:19.025Z,54.49
2018-07-30T00:13:48.126Z,54.59
2018-07-30T00:16:17.363Z,54.40
2018-07-30T00:18:46.477Z,54.71
2018-07-30T00:21:15.619Z,54.13
2018-07-30T00:23:44.733Z,55.46
2018-07-30T00:26:13.884Z,53.80
2018-07-30T00:28:43.027Z,54.77
2018-07-30T00:31:12.157Z,55.54
2018-07-30T00:33:41.253Z,54.08
2018-07-30T00:36:10.355Z,54.61
2018-07-30T00:38:39.538Z,54.35
2018-07-30T00:41:08.661Z,55.23
2018-07-30T00:43:37.790Z,54.48
2018-07-30T00:46:07.029Z,54.71
2018-07-30T00:48:36.181Z,55.54
2018-07-30T00:51:05.308Z,55.22
2018-07-30T00:53:34.471Z,56.06
2018-07-30T00:56:03.638Z,55.82
2018-07-30T00:58:32.794Z,56.07
2018-07-30T01:01:01.923Z,57.26
2018-07-30T01:03:31.510Z,56.50
2018-07-30T01:06:00.631Z,57.99
2018-07-30T01:08:29.790Z,57.60
2018-07-30T01:10:58.897Z,58.32
2018-07-30T01:13:28.014Z,57.28
2018-07-30T01:15:57.153Z,58.63
2018-07-30T01:18:26.281Z,57.69
2018-07-30T01:20:55.838Z,57.81
2018-07-30T01:23:24.986Z,57.42
2018-07-30T01:25:54.123Z,57.41
2018-07-30T01:28:23.253Z,57.64
2018-07-30T01:30:52.361Z,57.65
2018-07-30T01:33:21.497Z,57.79
2018-07-30T01:35:50.666Z,57.03
2018-07-30T01:38:19.782Z,56.37
2018-07-30T01:40:48.986Z,56.69
2018-07-30T01:43:18.109Z,57.34
2018-07-30T01:45:47.217Z,58.08
2018-07-30T01:48:16.345Z,58.97
2018-07-30T01:50:45.475Z,58.20
2018-07-30T01:53:14.746Z,58.97
2018-07-30T01:55:43.838Z,59.49
2018-07-30T01:58:12.957Z,58.86
2018-07-30T02:00:42.085Z,59.35
2018-07-30T02:03:11.218Z,58.85
2018-07-30T02:05:40.325Z,58.96
2018-07-30T02:08:09.466Z,60.12
2018-07-30T02:10:38.569Z,60.41
2018-07-30T02:13:07.702Z,59.94
2018-07-30T02:15:36.827Z,58.72
2018-07-30T02:18:06.195Z,60.50
2018-07-30T02:20:35.397Z,59.27
2018-07-30T02:23:04.524Z,59.51
2018-07-30T02:25:33.642Z,59.10
2018-07-30T02:28:02.802Z,59.08
2018-07-30T02:30:32.536Z,59.59
2018-07-30T02:33:01.640Z,57.91
2018-07-30T02:35:30.814Z,58.88
2018-07-30T02:37:59.977Z,59.04
2018-07-30T02:40:29.091Z,59.26
2018-07-30T02:42:58.247Z,59.34
2018-07-30T02:45:27.396Z,59.75
2018-07-30T02:47:56.530Z,59.22
2018-07-30T02:50:25.694Z,59.09
2018-07-30T02:52:54.811Z,60.77
2018-07-30T02:55:23.934Z,60.28
2018-07-30T02:57:53.047Z,60.32
2018-07-30T03:00:22.211Z,61.24
2018-07-30T03:02:51.342Z,60.74
2018-07-30T03:05:20.514Z,61.31
2018-07-30T03:07:49.807Z,61.00
2018-07-30T03:10:18.924Z,60.67
2018-07-30T03:12:48.073Z,60.01
2018-07-30T03:15:17.219Z,59.81
2018-07-30T03:17:46.331Z,59.32
2018-07-30T03:20:15.482Z,61.07
2018-07-30T03:22:44.593Z,60.57
2018-07-30T03:25:13.740Z,59.96
2018-07-30T03:27:42.860Z,59.97
2018-07-30T03:30:12.042Z,60.38
2018-07-30T03:32:41.162Z,60.03
2018-07-30T03:35:10.329Z,61.00
2018-07-30T03:37:39.465Z,60.26
2018-07-30T03:40:08.689Z,61.92
2018-07-30T03:42:37.940Z,60.64
2018-07-30T03:45:07.877Z,60.45
2018-07-30T03:47:36.986Z,60.59
2018-07-30T03:50:06.566Z,61.60
2018-07-30T03:52:35.758Z,60.84
2018-07-30T03:55:05.265Z,62.40
2018-07-30T03:57:34.407Z,62.64
2018-07-30T04:00:03.760Z,62.25
2018-07-30T04:02:32.829Z,61.62
2018-07-30T04:05:01.966Z,61.60
2018-07-30T04:07:31.096Z,62.74
2018-07-30T04:10:00.241Z,62.51
2018-07-30T04:12:29.395Z,62.11
2018-07-30T04:14:58.491Z,63.03
2018-07-30T04:17:27.609Z,63.65
2018-07-30T04:19:56.729Z,62.57
2018-07-30T04:22:25.850Z,63.06
2018-07-30T04:24:55.067Z,63.19
2018-07-30T04:27:24.229Z,63.94
2018-07-30T04:29:53.366Z,63.49
2018-07-30T04:32:22.521Z,63.16
2018-07-30T04:34:52.286Z,62.54
2018-07-30T04:37:21.414Z,63.23
2018-07-30T04:39:50.545Z,61.91
2018-07-30T04:42:19.697Z,61.52
2018-07-30T04:44:48.861Z,62.77
2018-07-30T04:47:17.990Z,61.57
2018-07-30T04:49:47.125Z,61.33
2018-07-30T04:52:16.270Z,60.67
2018-07-30T04:54:45.413Z,61.52
2018-07-30T04:57:14.586Z,61.57
2018-07-30T04:59:43.678Z,62.28
2018-07-30T05:02:12.900Z,61.32
2018-07-30T05:04:42.021Z,62.24
2018-07-30T05:07:11.147Z,61.49
2018-07-30T05:12:54.522Z,63.08
2018-07-30T05:17:51.694Z,62.69
2018-07-30T05:20:20.881Z,61.86
2018-07-30T05:22:50.017Z,62.68
2018-07-30T05:25:19.134Z,62.17
2018-07-30T05:27:48.273Z,62.26
2018-07-30T05:30:17.409Z,62.03
2018-07-30T05:32:46.537Z,60.75
2018-07-30T05:35:15.630Z,61.16
2018-07-30T05:37:44.773Z,61.36
2018-07-30T05:40:13.916Z,60.93
2018-07-30T05:42:43.067Z,60.32
2018-07-30T05:45:12.162Z,61.08
2018-07-30T05:47:41.306Z,60.70
2018-07-30T05:50:10.423Z,61.29
2018-07-30T05:52:39.553Z,60.23
2018-07-30T05:55:08.758Z,60.74
2018-07-30T05:57:37.876Z,60.46
2018-07-30T06:00:07.278Z,59.55
2018-07-30T06:02:36.403Z,59.33
2018-07-30T06:05:06.467Z,59.36
2018-07-30T06:07:35.599Z,58.58
2018-07-30T06:10:05.459Z,58.59
2018-07-30T06:12:34.603Z,58.66
2018-07-30T06:15:03.778Z,57.43
2018-07-30T06:17:32.876Z,57.95
2018-07-30T06:20:01.989Z,57.19
2018-07-30T06:22:31.099Z,55.11
2018-07-30T06:25:00.221Z,54.68
2018-07-30T06:27:29.396Z,55.22
2018-07-30T06:29:58.469Z,54.52
2018-07-30T06:32:27.585Z,54.60
2018-07-30T06:34:56.924Z,55.08
2018-07-30T06:37:26.115Z,53.97
2018-07-30T06:39:55.304Z,54.11
2018-07-30T06:42:24.450Z,53.34
2018-07-30T06:44:53.644Z,52.81
2018-07-30T06:47:22.773Z,53.57
2018-07-30T06:49:51.873Z,53.17
2018-07-30T06:52:21.070Z,53.47
2018-07-30T06:54:50.208Z,53.24
2018-07-30T06:57:19.340Z,52.98
2018-07-30T06:59:48.446Z,52.42
2018-07-30T07:02:17.598Z,51.74
2018-07-30T07:04:46.702Z,50.65
2018-07-30T07:07:15.818Z,51.57
2018-07-30T07:09:44.913Z,50.49
2018-07-30T07:12:14.045Z,50.24
2018-07-30T07:14:43.173Z,50.55
2018-07-30T07:17:12.298Z,50.88
2018-07-30T07:19:41.419Z,50.01
2018-07-30T07:22:10.526Z,50.20
2018-07-30T07:24:39.692Z,49.59
2018-07-30T07:27:08.865Z,49.89
2018-07-30T07:29:37.950Z,50.09
2018-07-30T07:32:07.248Z,50.31
2018-07-30T07:34:36.413Z,48.48
2018-07-30T07:37:05.616Z,49.25
2018-07-30T07:39:34.752Z,48.70
2018-07-30T07:42:03.899Z,48.03
2018-07-30T07:44:33.010Z,47.77
2018-07-30T07:47:02.161Z,48.39
2018-07-30T07:49:31.380Z,47.51
2018-07-30T07:52:00.482Z,48.02
2018-07-30T07:54:29.629Z,47.93
2018-07-30T07:56:58.741Z,49.01
2018-07-30T07:59:27.909Z,47.99
2018-07-30T08:01:57.059Z,47.64
2018-07-30T08:04:26.167Z,46.45
2018-07-30T08:06:55.293Z,45.85
2018-07-30T08:09:24.413Z,46.12
2018-07-30T08:11:53.549Z,45.75
2018-07-30T08:14:23.619Z,46.72
2018-07-30T08:16:52.729Z,46.25
2018-07-30T08:19:21.874Z,46.09
2018-07-30T08:21:51.010Z,45.98
2018-07-30T08:24:20.181Z,45.11
2018-07-30T08:26:49.331Z,43.99
2018-07-30T08:29:18.501Z,44.37
2018-07-30T08:31:47.763Z,43.06
2018-07-30T08:34:16.889Z,43.08
2018-07-30T08:36:46.166Z,43.15
2018-07-30T08:39:15.324Z,43.76
2018-07-30T08:41:44.437Z,43.85
2018-07-30T08:44:13.578Z,43.92
2018-07-30T08:46:42.721Z,43.53
2018-07-30T08:49:11.857Z,43.32
2018-07-30T08:51:40.981Z,41.97
2018-07-30T08:54:10.147Z,42.55
2018-07-30T08:56:39.326Z,41.30
2018-07-30T08:59:08.434Z,41.75
2018-07-30T09:01:37.570Z,42.17
2018-07-30T09:04:06.756Z,40.83
2018-07-30T09:06:35.890Z,40.11
2018-07-30T09:09:07.909Z,40.54
2018-07-30T09:11:37.411Z,39.19
2018-07-30T09:14:06.793Z,39.15
2018-07-30T09:16:35.993Z,38.42
2018-07-30T09:19:05.593Z,37.83
2018-07-30T09:21:34.770Z,37.17
2018-07-30T09:24:03.990Z,35.28
2018-07-30T09:26:33.153Z,35.46
2018-07-30T09:29:02.334Z,34.39
2018-07-30T09:31:32.295Z,33.79
2018-07-30T09:34:01.490Z,34.17
2018-07-30T09:36:30.628Z,36.11
2018-07-30T09:38:59.757Z,36.67
2018-07-30T09:41:28.912Z,36.20
2018-07-30T09:43:58.042Z,36.72
2018-07-30T09:46:27.163Z,36.52
2018-07-30T09:48:56.294Z,35.09
2018-07-30T09:51:25.442Z,36.07
2018-07-30T09:53:54.623Z,34.42
2018-07-30T09:56:23.759Z,33.56
2018-07-30T09:58:52.913Z,34.10
2018-07-30T10:01:28.626Z,33.74
2018-07-30T10:03:58.977Z,32.31
2018-07-30T10:06:28.110Z,31.15
2018-07-30T10:08:57.301Z,30.82
2018-07-30T10:11:26.549Z,31.63
2018-07-30T10:13:55.649Z,31.92
2018-07-30T10:16:24.767Z,31.39
2018-07-30T10:18:53.933Z,30.98
2018-07-30T10:21:29.157Z,31.47
2018-07-30T10:23:58.299Z,30.64
2018-07-30T10:26:27.441Z,31.98
2018-07-30T10:28:56.640Z,33.51
2018-07-30T10:31:25.779Z,32.58
2018-07-30T10:33:54.927Z,32.74
2018-07-30T10:36:24.137Z,31.71
2018-07-30T10:38:53.344Z,32.31
2018-07-30T10:41:22.547Z,32.44
2018-07-30T10:43:51.726Z,32.46
2018-07-30T10:46:20.949Z,31.62
2018-07-30T10:48:50.041Z,31.28
2018-07-30T10:51:19.145Z,32.10
2018-07-30T10:53:48.316Z,32.71
2018-07-30T10:56:17.397Z,32.75
2018-07-30T10:58:46.512Z,33.79
2018-07-30T11:01:15.667Z,33.94
2018-07-30T11:03:44.784Z,33.93
2018-07-30T11:06:14.066Z,33.15
2018-07-30T11:08:43.202Z,33.82
2018-07-30T11:11:12.326Z,31.77
2018-07-30T11:13:58.253Z,32.17
2018-07-30T11:16:27.369Z,32.99
2018-07-30T11:18:56.481Z,33.07
2018-07-30T11:21:25.663Z,31.54
2018-07-30T11:23:54.784Z,32.31
2018-07-30T11:26:23.886Z,32.72
2018-07-30T11:28:53.090Z,32.34
2018-07-30T11:31:22.234Z,33.75
2018-07-30T11:33:51.369Z,33.40
2018-07-30T11:36:20.501Z,33.77
2018-07-30T11:38:49.626Z,33.50
2018-07-30T11:41:18.742Z,34.30
2018-07-30T11:43:48.878Z,33.64
2018-07-30T11:46:17.998Z,33.02
2018-07-30T11:48:47.195Z,31.92
2018-07-30T11:51:16.262Z,32.39
2018-07-30T11:53:45.411Z,31.62
2018-07-30T11:56:14.560Z,30.72
2018-07-30T11:58:43.673Z,31.67
2018-07-30T12:01:12.832Z,31.42
2018-07-30T12:03:41.981Z,32.13
2018-07-30T12:06:11.146Z,29.81
2018-07-30T12:08:40.291Z,29.24
2018-07-30T12:11:09.456Z,29.11
2018-07-30T12:13:38.712Z,30.32
2018-07-30T12:16:07.821Z,29.70
2018-07-30T12:18:37.035Z,31.37
2018-07-30T12:21:06.197Z,30.82
2018-07-30T12:23:35.669Z,30.76
2018-07-30T12:26:04.833Z,30.83
2018-07-30T12:28:33.948Z,30.36
2018-07-30T12:31:03.121Z,31.31
2018-07-30T12:33:32.284Z,30.85
2018-07-30T12:36:01.465Z,30.36
2018-07-30T12:38:30.610Z,30.85
2018-07-30T12:40:59.717Z,30.05
2018-07-30T12:43:28.878Z,31.72
2018-07-30T12:45:58.015Z,31.65
2018-07-30T12:48:27.171Z,31.41
2018-07-30T12:50:56.425Z,32.22
2018-07-30T12:53:25.553Z,30.99
2018-07-30T12:55:54.696Z,30.98
2018-07-30T12:58:23.831Z,31.60
2018-07-30T13:00:54.029Z,31.02
2018-07-30T13:03:23.199Z,29.63
2018-07-30T13:05:52.376Z,29.52
2018-07-30T13:08:21.567Z,29.11
2018-07-30T13:10:50.682Z,27.75
2018-07-30T13:13:19.829Z,28.90
2018-07-30T13:15:48.973Z,27.98
2018-07-30T13:18:18.161Z,27.59
2018-07-30T13:20:47.344Z,28.02
2018-07-30T13:23:16.480Z,28.15
2018-07-30T13:25:45.662Z,28.92
2018-07-30T13:28:14.778Z,27.79
2018-07-30T13:30:44.055Z,28.58
2018-07-30T13:33:13.185Z,28.50
2018-07-30T13:35:42.309Z,29.02
2018-07-30T13:38:11.446Z,28.14
2018-07-30T13:40:40.646Z,28.27
2018-07-30T13:43:09.817Z,28.56
2018-07-30T13:45:39.786Z,28.47
2018-07-30T13:48:08.940Z,29.02
2018-07-30T13:50:38.095Z,28.59
2018-07-30T13:53:07.306Z,28.20
2018-07-30T13:55:36.651Z,29.09
2018-07-30T13:58:05.925Z,28.32
2018-07-30T14:00:35.178Z,28.20
2018-07-30T14:03:04.363Z,28.26
2018-07-30T14:05:33.521Z,28.66
2018-07-30T14:08:02.667Z,29.27
2018-07-30T14:10:31.786Z,28.86
2018-07-30T14:13:02.018Z,29.10
2018-07-30T14:15:31.201Z,28.22
2018-07-30T14:18:00.347Z,27.72
2018-07-30T14:20:29.475Z,27.62
2018-07-30T14:22:58.639Z,27.35
2018-07-30T14:25:27.870Z,28.52
2018-07-30T14:27:57.045Z,27.29
2018-07-30T14:30:26.169Z,26.73
2018-07-30T14:32:55.329Z,27.45
2018-07-30T14:35:24.504Z,27.47
2018-07-30T14:37:53.642Z,27.46
2018-07-30T14:40:22.844Z,28.59
2018-07-30T14:42:51.978Z,27.95
2018-07-30T14:45:21.157Z,27.50
2018-07-30T14:47:50.340Z,28.42
2018-07-30T14:50:19.458Z,29.28
2018-07-30T14:52:48.670Z,28.47
2018-07-30T14:55:17.797Z,27.93
2018-07-30T14:57:46.921Z,28.03
2018-07-30T15:00:16.116Z,28.24
2018-07-30T15:02:45.253Z,27.68
2018-07-30T15:05:18.546Z,28.74
2018-07-30T15:07:47.741Z,28.40
2018-07-30T15:10:16.901Z,27.97
2018-07-30T15:12:46.112Z,27.35
2018-07-30T15:15:15.291Z,28.52
2018-07-30T15:17:44.438Z,27.02
2018-07-30T15:20:13.565Z,27.88
2018-07-30T15:22:42.685Z,26.87
2018-07-30T15:25:11.922Z,26.89
2018-07-30T15:27:41.049Z,27.04
2018-07-30T15:30:10.202Z,27.17
2018-07-30T15:32:39.310Z,26.91
2018-07-30T15:35:08.488Z,28.36
2018-07-30T15:37:37.785Z,27.66
2018-07-30T15:40:07.270Z,28.61
2018-07-30T15:42:36.438Z,27.95
2018-07-30T15:45:05.806Z,27.08
2018-07-30T15:47:34.994Z,27.05
2018-07-30T15:50:04.274Z,27.81
2018-07-30T15:52:38.018Z,27.92
2018-07-30T15:55:07.315Z,27.71
2018-07-30T15:57:36.478Z,26.61
2018-07-30T16:00:06.962Z,26.18
2018-07-30T16:02:36.209Z,26.63
2018-07-30T16:05:05.531Z,26.70
2018-07-30T16:07:34.726Z,26.92
2018-07-30T16:10:04.158Z,26.91
2018-07-30T16:12:33.326Z,26.75
2018-07-30T16:15:02.442Z,28.22
2018-07-30T16:17:31.652Z,27.68
2018-07-30T16:20:00.785Z,27.11
2018-07-30T16:22:29.902Z,28.07
2018-07-30T16:24:59.065Z,27.45
2018-07-30T16:27:28.204Z,28.87
2018-07-30T16:29:57.393Z,28.86
2018-07-30T16:32:27.219Z,27.96
2018-07-30T16:34:56.413Z,28.05
2018-07-30T16:37:25.558Z,27.92
2018-07-30T16:39:54.746Z,28.75
2018-07-30T16:42:23.888Z,27.85
2018-07-30T16:44:53.027Z,27.70
2018-07-30T16:47:22.220Z,27.16
2018-07-30T16:49:51.538Z,28.45
2018-07-30T16:52:20.813Z,27.71
2018-07-30T16:54:50.021Z,28.37
2018-07-30T16:57:19.406Z,28.20
2018-07-30T16:59:48.709Z,28.35
2018-07-30T17:02:21.490Z,28.22
2018-07-30T17:04:50.751Z,27.64
2018-07-30T17:07:20.807Z,28.78
2018-07-30T17:09:50.013Z,27.93
2018-07-30T17:12:20.729Z,27.45
2018-07-30T17:14:50.873Z,28.55
2018-07-30T17:17:34.070Z,28.32
2018-07-30T17:20:08.771Z,28.14
2018-07-30T17:22:38.022Z,28.08
2018-07-30T17:25:07.211Z,28.58
2018-07-30T17:27:36.394Z,28.52
2018-07-30T17:30:05.895Z,28.32
2018-07-30T17:32:36.094Z,28.94
2018-07-30T17:35:05.488Z,29.27
2018-07-30T17:37:34.809Z,28.63
2018-07-30T17:40:04.869Z,29.03
2018-07-30T17:42:34.040Z,28.97
2018-07-30T17:45:03.234Z,28.70
2018-07-30T17:47:33.279Z,30.02
2018-07-30T17:50:02.434Z,29.78
2018-07-30T17:52:31.548Z,29.65
2018-07-30T17:55:00.712Z,29.03
2018-07-30T17:57:29.861Z,29.70
2018-07-30T17:59:59.361Z,29.33
2018-07-30T18:02:31.833Z,30.54
2018-07-30T18:05:01.032Z,30.09
2018-07-30T18:07:30.165Z,30.90
2018-07-30T18:09:59.393Z,30.31
2018-07-30T18:12:28.561Z,31.06
2018-07-30T18:15:02.294Z,30.39
2018-07-30T18:17:31.442Z,31.14
2018-07-30T18:20:06.834Z,30.76
2018-07-30T18:22:36.006Z,30.25
2018-07-30T18:25:15.994Z,30.78
2018-07-30T18:27:45.265Z,30.74
2018-07-30T18:30:14.530Z,31.46
2018-07-30T18:32:44.332Z,32.09
2018-07-30T18:35:13.530Z,31.80
2018-07-30T18:37:42.696Z,32.42
2018-07-30T18:40:11.892Z,31.53
2018-07-30T18:42:41.022Z,32.58
2018-07-30T18:45:12.250Z,33.00
2018-07-30T18:47:45.215Z,32.58
2018-07-30T18:50:14.472Z,32.55
2018-07-30T18:52:48.115Z,33.64
2018-07-30T18:55:18.262Z,34.06
2018-07-30T18:57:47.877Z,33.62
2018-07-30T19:00:17.269Z,33.68
2018-07-30T19:02:46.594Z,34.47
2018-07-30T19:05:16.000Z,34.57
2018-07-30T19:07:45.287Z,35.28
2018-07-30T19:10:14.602Z,34.51
2018-07-30T19:12:43.780Z,37.00
2018-07-30T19:15:12.914Z,36.36
2018-07-30T19:17:43.381Z,37.31
2018-07-30T19:20:12.713Z,37.29
2018-07-30T19:22:44.533Z,36.55
2018-07-30T19:25:17.813Z,38.19
2018-07-30T19:27:47.767Z,37.30
2018-07-30T19:30:17.169Z,39.60
2018-07-30T19:32:46.607Z,39.72
2018-07-30T19:35:15.858Z,40.70
2018-07-30T19:37:45.053Z,39.23
2018-07-30T19:40:14.227Z,40.53
2018-07-30T19:42:43.424Z,40.50
2018-07-30T19:45:12.557Z,40.57
2018-07-30T19:47:41.693Z,41.08
2018-07-30T19:50:11.422Z,40.88
2018-07-30T19:52:40.709Z,42.42
2018-07-30T19:55:09.828Z,42.39
2018-07-30T19:57:39.099Z,42.70
2018-07-30T20:00:08.755Z,42.05
2018-07-30T20:02:38.472Z,44.14
2018-07-30T20:05:08.413Z,43.53
2018-07-30T20:07:37.601Z,42.78
2018-07-30T20:10:06.897Z,43.93
2018-07-30T20:12:36.094Z,43.44
2018-07-30T20:15:05.749Z,44.73
2018-07-30T20:17:43.875Z,45.44
2018-07-30T20:20:18.123Z,44.14
2018-07-30T20:22:49.606Z,44.83
2018-07-30T20:25:18.997Z,44.82
2018-07-30T20:27:48.501Z,45.66
2018-07-30T20:30:18.209Z,45.09
2018-07-30T20:32:47.400Z,45.74
2018-07-30T20:35:16.729Z,45.22
2018-07-30T20:37:46.288Z,47.11
2018-07-30T20:40:15.468Z,45.83
2018-07-30T20:42:44.712Z,45.65
2018-07-30T20:45:14.009Z,48.28
2018-07-30T20:47:43.108Z,48.40
2018-07-30T20:50:12.589Z,46.90
2018-07-30T20:52:41.676Z,48.11
2018-07-30T20:55:10.833Z,46.70
2018-07-30T20:57:40.041Z,47.06
2018-07-30T21:00:09.201Z,47.64
2018-07-30T21:02:38.328Z,49.34
2018-07-30T21:05:07.429Z,49.15
2018-07-30T21:07:36.580Z,49.00
2018-07-30T21:10:06.009Z,48.78
2018-07-30T21:12:35.133Z,48.18
2018-07-30T21:15:04.757Z,49.29
2018-07-30T21:17:33.925Z,50.43
2018-07-30T21:20:03.485Z,49.51
2018-07-30T21:22:32.621Z,48.96
2018-07-30T21:25:01.741Z,50.48
2018-07-30T21:27:30.846Z,49.74
2018-07-30T21:29:59.929Z,50.31
2018-07-30T21:32:29.037Z,50.70
2018-07-30T21:34:58.118Z,50.90
2018-07-30T21:37:27.247Z,50.70
2018-07-30T21:39:56.346Z,51.71
2018-07-30T21:42:25.457Z,51.16
2018-07-30T21:44:54.590Z,52.24
2018-07-30T21:47:23.729Z,51.62
2018-07-30T21:49:52.777Z,50.91
2018-07-30T21:52:22.049Z,50.52
2018-07-30T21:54:51.229Z,50.60
2018-07-30T21:57:20.425Z,49.42
2018-07-30T21:59:49.633Z,49.28
2018-07-30T22:02:18.749Z,48.93
2018-07-30T22:04:47.884Z,49.49
2018-07-30T22:07:16.987Z,50.25
2018-07-30T22:09:46.154Z,49.59
2018-07-30T22:12:15.289Z,49.74
2018-07-30T22:14:44.390Z,49.82
2018-07-30T22:17:13.500Z,49.83
2018-07-30T22:19:42.669Z,50.18
2018-07-30T22:22:11.769Z,51.23
2018-07-30T22:24:40.897Z,51.05
2018-07-30T22:27:10.041Z,51.25
2018-07-30T22:29:39.124Z,50.65
2018-07-30T22:32:08.275Z,51.87
2018-07-30T22:34:37.381Z,50.21
2018-07-30T22:37:06.473Z,50.90
2018-07-30T22:39:35.573Z,51.74
2018-07-30T22:42:04.674Z,51.12
2018-07-30T22:44:33.757Z,51.52
2018-07-30T22:47:02.880Z,52.90
2018-07-30T22:49:31.988Z,52.11
2018-07-30T22:52:01.116Z,52.48
2018-07-30T22:54:30.317Z,52.55
2018-07-30T22:56:59.444Z,51.72
2018-07-30T22:59:28.584Z,52.21
2018-07-30T23:01:57.690Z,51.30
2018-07-30T23:04:26.777Z,52.18
2018-07-30T23:06:55.873Z,53.34
2018-07-30T23:09:24.987Z,52.21
2018-07-30T23:11:54.096Z,52.25
2018-07-30T23:14:23.202Z,52.85
2018-07-30T23:16:52.289Z,51.90
2018-07-30T23:19:21.400Z,52.12
2018-07-30T23:21:50.544Z,52.84
2018-07-30T23:24:19.641Z,53.19
2018-07-30T23:26:48.769Z,54.15
2018-07-30T23:29:17.891Z,54.20
2018-07-30T23:31:46.978Z,55.84
2018-07-30T23:34:16.121Z,54.57
2018-07-30T23:36:45.260Z,54.79
2018-07-30T23:39:14.329Z,55.00
2018-07-30T23:41:43.419Z,55.18
2018-07-30T23:44:12.575Z,55.52
2018-07-30T23:46:41.596Z,55.99
2018-07-30T23:49:10.672Z,56.70
2018-07-30T23:51:39.785Z,56.62
2018-07-30T23:54:08.869Z,55.75
2018-07-30T23:56:37.944Z,55.54
2018-07-30T23:59:07.037Z,55.20
